TimeEST,TemperatureF,Dew PointF,Humidity,Sea Level PressureIn,VisibilityMPH,Wind Direction,Wind SpeedMPH,Gust SpeedMPH,PrecipitationIn,Events,Conditions,WindDirDegrees,DateUTC
12:53 AM,34.0,19.9,56,30.12,10.0,NW,5.8,-,N/A,,Clear,320,2012-11-25 05:53:00
1:53 AM,34.0,19.0,54,30.12,10.0,NW,4.6,-,N/A,,Clear,320,2012-11-25 06:53:00
2:53 AM,32.0,19.9,61,30.13,10.0,WNW,4.6,-,N/A,,Clear,300,2012-11-25 07:53:00
3:53 AM,32.0,21.0,64,30.13,10.0,West,3.5,-,N/A,,Clear,270,2012-11-25 08:53:00
4:53 AM,30.0,21.0,69,30.15,10.0,Calm,Calm,-,N/A,,Clear,0,2012-11-25 09:53:00
5:53 AM,30.9,21.9,69,30.15,10.0,Calm,Calm,-,N/A,,Clear,0,2012-11-25 10:53:00
6:53 AM,28.9,21.9,75,30.17,10.0,Calm,Calm,-,N/A,,Clear,0,2012-11-25 11:53:00
7:53 AM,30.9,24.1,76,30.19,10.0,Calm,Calm,-,N/A,,Clear,0,2012-11-25 12:53:00
8:53 AM,37.0,21.0,52,30.18,10.0,Calm,Calm,-,N/A,,Clear,0,2012-11-25 13:53:00
9:53 AM,43.0,17.1,35,30.19,10.0,Calm,Calm,-,N/A,,Clear,0,2012-11-25 14:53:00
10:53 AM,46.0,15.1,29,30.19,10.0,Calm,Calm,-,N/A,,Clear,0,2012-11-25 15:53:00
11:53 AM,48.9,15.1,26,30.16,10.0,West,6.9,-,N/A,,Clear,270,2012-11-25 16:53:00
12:53 PM,52.0,10.9,19,30.13,10.0,West,8.1,-,N/A,,Clear,260,2012-11-25 17:53:00
1:53 PM,54.0,15.1,22,30.09,10.0,WSW,8.1,-,N/A,,Clear,240,2012-11-25 18:53:00
2:53 PM,55.0,10.0,17,30.09,10.0,WNW,9.2,-,N/A,,Clear,290,2012-11-25 19:53:00
3:53 PM,55.9,10.0,16,30.07,10.0,WSW,10.4,-,N/A,,Clear,250,2012-11-25 20:53:00
4:53 PM,54.0,10.0,17,30.08,10.0,WSW,8.1,-,N/A,,Clear,240,2012-11-25 21:53:00
5:53 PM,48.9,12.0,23,30.10,10.0,WSW,6.9,-,N/A,,Clear,240,2012-11-25 22:53:00
6:53 PM,46.9,12.0,24,30.11,10.0,West,4.6,-,N/A,,Clear,260,2012-11-25 23:53:00
7:53 PM,48.0,12.0,24,30.13,10.0,Calm,Calm,-,N/A,,Clear,0,2012-11-26 00:53:00
8:53 PM,46.9,14.0,27,30.13,10.0,West,3.5,-,N/A,,Clear,260,2012-11-26 01:53:00
9:53 PM,45.0,15.1,30,30.13,10.0,Calm,Calm,-,N/A,,Clear,0,2012-11-26 02:53:00
10:53 PM,45.0,12.9,27,30.13,10.0,West,3.5,-,N/A,,Clear,280,2012-11-26 03:53:00
11:53 PM,42.1,15.1,34,30.13,10.0,WNW,3.5,-,N/A,,Clear,300,2012-11-26 04:53:00